ACER20 KFCS-KFCS
Flight info
| Callsign | ACER20 |
|---|---|
| Flight time | 0h 3m |
| Altitude | 7500 |
| Route | VFR |
| Aircraft | H60/L-VGD/C |
Departure
| Time | 2026-04-11 22:34 |
|---|---|
| Airport | Butts AAF (Fort Carson) Air Field (KFCS) |
Arrival
| Time | 2026-04-11 22:38 |
|---|---|
| Airport | Butts AAF (Fort Carson) Air Field (KFCS) |
| Time | Latitude | Longitude | Altitude | Speed | Heading |
|---|---|---|---|---|---|
| 2026-04-11 22:30 | 38.52651 | -104.90811 | 5986 ft | 0 kts | 175° |
| 2026-04-11 22:31 | 38.52652 | -104.90813 | 5995 ft | 1 kts | 181° |
| 2026-04-11 22:31 | 38.52647 | -104.90818 | 5998 ft | 2 kts | 181° |
| 2026-04-11 22:31 | 38.52645 | -104.90826 | 6007 ft | 0 kts | 184° |
| 2026-04-11 22:32 | 38.52646 | -104.90829 | 6010 ft | 1 kts | 181° |
| 2026-04-11 22:32 | 38.52644 | -104.90831 | 6024 ft | 1 kts | 180° |
| 2026-04-11 22:32 | 38.52622 | -104.90799 | 6066 ft | 5 kts | 344° |
| 2026-04-11 22:32 | 38.52619 | -104.90827 | 6052 ft | 24 kts | 180° |
| 2026-04-11 22:33 | 38.52344 | -104.90799 | 6108 ft | 38 kts | 95° |
| 2026-04-11 22:33 | 38.52472 | -104.90663 | 6134 ft | 56 kts | 345° |
| 2026-04-11 22:33 | 38.53083 | -104.90722 | 6272 ft | 122 kts | 359° |
| 2026-04-11 22:33 | 38.53846 | -104.90046 | 6234 ft | 146 kts | 67° |
| 2026-04-11 22:34 | 38.54282 | -104.88843 | 6422 ft | 154 kts | 68° |
| 2026-04-11 22:34 | 38.54817 | -104.87608 | 6501 ft | 169 kts | 64° |
| 2026-04-11 22:34 | 38.55462 | -104.86366 | 6548 ft | 168 kts | 51° |
| 2026-04-11 22:34 | 38.56410 | -104.85476 | 6620 ft | 175 kts | 33° |
| 2026-04-11 22:35 | 38.57495 | -104.84667 | 6554 ft | 185 kts | 32° |
| 2026-04-11 22:35 | 38.58596 | -104.83799 | 6520 ft | 183 kts | 35° |
| 2026-04-11 22:35 | 38.59651 | -104.82900 | 6631 ft | 185 kts | 36° |
| 2026-04-11 22:35 | 38.60708 | -104.81954 | 6392 ft | 182 kts | 36° |
| 2026-04-11 22:36 | 38.61745 | -104.81049 | 6405 ft | 182 kts | 36° |
| 2026-04-11 22:36 | 38.62801 | -104.80104 | 6363 ft | 187 kts | 39° |
| 2026-04-11 22:36 | 38.63877 | -104.79135 | 6324 ft | 192 kts | 36° |
| 2026-04-11 22:36 | 38.65002 | -104.78189 | 6191 ft | 191 kts | 34° |
| 2026-04-11 22:37 | 38.66098 | -104.77277 | 6207 ft | 183 kts | 32° |
| 2026-04-11 22:37 | 38.67152 | -104.77273 | 6612 ft | 143 kts | 335° |
| 2026-04-11 22:37 | 38.68145 | -104.77571 | 6493 ft | 146 kts | 15° |
| 2026-04-11 22:37 | 38.68630 | -104.76803 | 6123 ft | 101 kts | 121° |
| 2026-04-11 22:38 | 38.68366 | -104.76272 | 5923 ft | 45 kts | 158° |
| 2026-04-11 22:38 | 38.68285 | -104.76140 | 5869 ft | 1 kts | 168° |
| 2026-04-11 22:38 | 38.68186 | -104.76088 | 5867 ft | 15 kts | 199° |
| 2026-04-11 22:38 | 38.68128 | -104.76115 | 5843 ft | 4 kts | 229° |
| 2026-04-11 22:39 | 38.68123 | -104.76121 | 5837 ft | 1 kts | 228° |
| 2026-04-11 22:39 | 38.68123 | -104.76122 | 5835 ft | 0 kts | 228° |
| 2026-04-11 22:40 | 38.68110 | -104.76141 | 5836 ft | 8 kts | 229° |
| 2026-04-11 22:40 | 38.68052 | -104.76148 | 5834 ft | 12 kts | 137° |
| 2026-04-11 22:40 | 38.67982 | -104.76089 | 5832 ft | 8 kts | 241° |
| 2026-04-11 22:40 | 38.67946 | -104.76147 | 5832 ft | 9 kts | 225° |
| 2026-04-11 22:41 | 38.67921 | -104.76180 | 5832 ft | 0 kts | 225° |